Time,TemperatureF,DewpointF,PressureIn,WindDirection,WindDirectionDegrees,WindSpeedMPH,WindSpeedGustMPH,Humidity,HourlyPrecipIn,Conditions,Clouds,dailyrainin,SoftwareType,DateUTC
2013-02-11 00:02:00,42.3,19.6,29.70,WSW,253,10.4,10.4,40,0.00,,,0.16,WeatherDisplay:10.36,2013-02-11 06:02:00,
2013-02-11 00:07:00,41.7,19.1,29.70,NE,47,13.4,13.4,40,0.00,,,0.00,WeatherDisplay:10.36,2013-02-11 06:07:00,
2013-02-11 00:13:00,41.5,19.0,29.70,NE,45,15.2,15.2,40,0.00,,,0.00,WeatherDisplay:10.36,2013-02-11 06:13:00,
2013-02-11 00:18:00,41.2,18.7,29.73,NE,45,10.4,10.4,40,0.00,,,0.00,WeatherDisplay:10.36,2013-02-11 06:18:00,
2013-02-11 00:23:00,40.8,17.7,29.73,WSW,239,14.3,14.3,39,0.00,,,0.00,WeatherDisplay:10.36,2013-02-11 06:23:00,
2013-02-11 00:28:00,40.6,17.6,29.73,NE,52,14.7,14.7,39,0.00,,,0.00,WeatherDisplay:10.36,2013-02-11 06:28:00,
2013-02-11 00:33:00,40.5,17.4,29.73,NE,44,12.5,12.5,39,0.00,,,0.00,WeatherDisplay:10.36,2013-02-11 06:33:00,
2013-02-11 00:38:00,40.5,17.4,29.73,East,90,12.7,12.7,39,0.00,,,0.00,WeatherDisplay:10.36,2013-02-11 06:38:00,
2013-02-11 00:43:00,40.3,17.3,29.73,NE,46,13.9,13.9,39,0.00,,,0.00,WeatherDisplay:10.36,2013-02-11 06:43:00,
2013-02-11 00:48:00,40.1,17.7,29.73,NE,46,10.4,10.4,40,0.00,,,0.00,WeatherDisplay:10.36,2013-02-11 06:48:00,
2013-02-11 00:54:00,40.1,17.7,29.73,NE,44,9.2,9.2,40,0.00,,,0.00,WeatherDisplay:10.36,2013-02-11 06:54:00,
2013-02-11 00:59:00,39.9,18.1,29.73,NE,44,9.6,9.6,41,0.00,,,0.00,WeatherDisplay:10.36,2013-02-11 06:59:00,
2013-02-11 01:04:00,39.9,18.1,29.76,West,267,10.4,10.4,41,0.00,,,0.00,WeatherDisplay:10.36,2013-02-11 07:04:00,
2013-02-11 01:09:00,39.9,18.7,29.76,NE,44,10.5,10.5,42,0.00,,,0.00,WeatherDisplay:10.36,2013-02-11 07:09:00,
2013-02-11 01:14:00,39.7,18.5,29.76,WSW,253,13.8,13.8,42,0.00,,,0.00,WeatherDisplay:10.36,2013-02-11 07:14:00,
2013-02-11 01:19:00,39.7,17.9,29.76,NE,49,11.6,11.6,41,0.00,,,0.00,WeatherDisplay:10.36,2013-02-11 07:19:00,
2013-02-11 01:25:00,39.6,17.2,29.76,SSE,167,11.5,11.5,40,0.00,,,0.00,WeatherDisplay:10.36,2013-02-11 07:25:00,
2013-02-11 01:30:00,39.6,17.2,29.76,West,262,15.9,15.9,40,0.00,,,0.00,WeatherDisplay:10.36,2013-02-11 07:30:00,
2013-02-11 01:34:00,39.4,17.0,29.76,NE,51,11.5,11.5,40,0.00,,,0.00,WeatherDisplay:10.36,2013-02-11 07:34:00,
2013-02-11 01:39:00,39.4,17.0,29.76,NE,44,5.4,10.5,40,0.00,,,0.00,WeatherDisplay:10.36,2013-02-11 07:39:00,
2013-02-11 01:44:00,39.2,17.4,29.76,NE,50,10.9,10.9,41,0.00,,,0.00,WeatherDisplay:10.36,2013-02-11 07:44:00,
2013-02-11 01:49:00,39.2,17.4,29.76,NE,48,11.5,11.5,41,0.00,,,0.00,WeatherDisplay:10.36,2013-02-11 07:49:00,
2013-02-11 01:54:00,39.0,17.3,29.76,NE,53,5.8,7.8,41,0.00,,,0.00,WeatherDisplay:10.36,2013-02-11 07:54:00,
2013-02-11 01:59:00,38.8,17.1,29.76,East,95,13.8,13.8,41,0.00,,,0.00,WeatherDisplay:10.36,2013-02-11 07:59:00,
2013-02-11 02:04:00,38.8,17.1,29.76,West,266,9.2,9.2,41,0.00,,,0.00,WeatherDisplay:10.36,2013-02-11 08:04:00,
2013-02-11 02:09:00,38.8,17.1,29.76,NE,46,11.5,11.5,41,0.00,,,0.00,WeatherDisplay:10.36,2013-02-11 08:09:00,
2013-02-11 02:14:00,38.7,17.0,29.76,NE,51,12.1,12.1,41,0.00,,,0.00,WeatherDisplay:10.36,2013-02-11 08:14:00,
2013-02-11 02:19:00,38.7,17.0,29.79,NE,47,9.2,9.2,41,0.00,,,0.00,WeatherDisplay:10.36,2013-02-11 08:19:00,
2013-02-11 02:24:00,38.7,17.0,29.79,ENE,62,12.7,12.7,41,0.00,,,0.00,WeatherDisplay:10.36,2013-02-11 08:24:00,
2013-02-11 02:29:00,38.7,17.0,29.79,WSW,249,8.7,10.9,41,0.00,,,0.00,WeatherDisplay:10.36,2013-02-11 08:29:00,
2013-02-11 02:34:00,38.5,16.2,29.79,NE,50,11.6,11.6,40,0.00,,,0.00,WeatherDisplay:10.36,2013-02-11 08:34:00,
2013-02-11 02:39:00,38.3,16.1,29.79,ENE,70,7.4,10.5,40,0.00,,,0.00,WeatherDisplay:10.36,2013-02-11 08:39:00,
2013-02-11 02:44:00,38.1,15.9,29.79,West,267,13.8,13.8,40,0.00,,,0.00,WeatherDisplay:10.36,2013-02-11 08:44:00,
2013-02-11 02:49:00,37.8,15.6,29.79,West,264,0.0,10.5,40,0.00,,,0.00,WeatherDisplay:10.36,2013-02-11 08:49:00,
2013-02-11 02:54:00,37.6,15.4,29.79,NE,50,8.3,9.6,40,0.00,,,0.00,WeatherDisplay:10.36,2013-02-11 08:54:00,
2013-02-11 02:59:00,37.4,15.2,29.79,East,97,11.5,11.5,40,0.00,,,0.00,WeatherDisplay:10.36,2013-02-11 08:59:00,
2013-02-11 03:04:00,37.2,15.1,29.79,West,266,11.6,11.6,40,0.00,,,0.00,WeatherDisplay:10.36,2013-02-11 09:04:00,
2013-02-11 03:09:00,37.0,15.5,29.79,ENE,71,0.0,9.6,41,0.00,,,0.00,WeatherDisplay:10.36,2013-02-11 09:09:00,
2013-02-11 03:14:00,36.9,15.3,29.79,NE,55,14.7,14.7,41,0.00,,,0.00,WeatherDisplay:10.36,2013-02-11 09:14:00,
2013-02-11 03:19:00,37.0,16.0,29.79,North,351,11.5,11.5,42,0.00,,,0.00,WeatherDisplay:10.36,2013-02-11 09:19:00,
2013-02-11 03:24:00,37.2,16.2,29.79,ENE,73,5.8,7.4,42,0.00,,,0.00,WeatherDisplay:10.36,2013-02-11 09:24:00,
2013-02-11 03:29:00,37.2,16.2,29.79,NE,49,9.2,9.2,42,0.00,,,0.00,WeatherDisplay:10.36,2013-02-11 09:29:00,
2013-02-11 03:34:00,37.4,16.4,29.82,ENE,74,10.9,10.9,42,0.00,,,0.00,WeatherDisplay:10.36,2013-02-11 09:34:00,
2013-02-11 03:39:00,37.4,16.4,29.82,West,262,13.8,13.8,42,0.00,,,0.00,WeatherDisplay:10.36,2013-02-11 09:39:00,
2013-02-11 03:44:00,37.4,16.4,29.82,NE,51,0.0,5.4,42,0.00,,,0.00,WeatherDisplay:10.36,2013-02-11 09:44:00,
2013-02-11 03:49:00,37.4,16.4,29.82,SSE,149,12.1,12.1,42,0.00,,,0.00,WeatherDisplay:10.36,2013-02-11 09:49:00,
2013-02-11 03:54:00,37.4,16.9,29.82,WSW,258,7.8,8.3,43,0.00,,,0.00,WeatherDisplay:10.36,2013-02-11 09:54:00,
2013-02-11 03:59:00,37.4,16.9,29.82,NE,49,13.0,13.0,43,0.00,,,0.00,WeatherDisplay:10.36,2013-02-11 09:59:00,
2013-02-11 04:04:00,37.4,16.9,29.82,NE,55,0.0,7.4,43,0.00,,,0.00,WeatherDisplay:10.36,2013-02-11 10:04:00,
2013-02-11 04:09:00,37.2,16.7,29.82,West,266,13.9,13.9,43,0.00,,,0.00,WeatherDisplay:10.36,2013-02-11 10:09:00,
2013-02-11 04:14:00,37.2,16.7,29.82,NE,53,7.8,8.7,43,0.00,,,0.00,WeatherDisplay:10.36,2013-02-11 10:14:00,
2013-02-11 04:19:00,37.2,16.7,29.82,ENE,63,9.6,9.6,43,0.00,,,0.00,WeatherDisplay:10.36,2013-02-11 10:19:00,
2013-02-11 04:24:00,37.0,16.0,29.82,NE,50,0.0,9.2,42,0.00,,,0.00,WeatherDisplay:10.36,2013-02-11 10:24:00,
2013-02-11 04:29:00,37.0,16.0,29.82,NE,49,10.1,10.1,42,0.00,,,0.00,WeatherDisplay:10.36,2013-02-11 10:29:00,
2013-02-11 04:34:00,37.0,16.0,29.82,ENE,63,13.0,13.0,42,0.00,,,0.00,WeatherDisplay:10.36,2013-02-11 10:34:00,
2013-02-11 04:39:00,37.0,15.5,29.82,NE,48,8.7,10.1,41,0.00,,,0.00,WeatherDisplay:10.36,2013-02-11 10:39:00,
2013-02-11 04:45:00,36.9,15.3,29.82,NE,50,15.0,15.0,41,0.00,,,0.00,WeatherDisplay:10.36,2013-02-11 10:45:00,
2013-02-11 04:50:00,36.9,15.3,29.82,NE,46,8.3,8.3,41,0.00,,,0.00,WeatherDisplay:10.36,2013-02-11 10:50:00,
2013-02-11 04:55:00,36.7,15.2,29.82,NE,55,11.5,11.5,41,0.00,,,0.00,WeatherDisplay:10.36,2013-02-11 10:55:00,
2013-02-11 05:00:00,36.7,15.2,29.82,East,84,10.5,10.5,41,0.00,,,0.00,WeatherDisplay:10.36,2013-02-11 11:00:00,
2013-02-11 05:05:00,36.7,15.2,29.85,NE,50,13.4,13.4,41,0.00,,,0.00,WeatherDisplay:10.36,2013-02-11 11:05:00,
2013-02-11 05:10:00,36.9,15.3,29.85,NE,49,10.4,10.4,41,0.00,,,0.00,WeatherDisplay:10.36,2013-02-11 11:10:00,
2013-02-11 05:15:00,36.9,14.8,29.85,ENE,58,13.8,13.8,40,0.00,,,0.00,WeatherDisplay:10.36,2013-02-11 11:15:00,
2013-02-11 05:20:00,36.7,14.6,29.85,NE,49,10.1,10.1,40,0.00,,,0.00,WeatherDisplay:10.36,2013-02-11 11:20:00,
2013-02-11 05:25:00,36.7,14.6,29.85,NE,49,15.0,15.0,40,0.00,,,0.00,WeatherDisplay:10.36,2013-02-11 11:25:00,
2013-02-11 05:30:00,36.3,14.8,29.85,ENE,66,7.8,7.8,41,0.00,,,0.00,WeatherDisplay:10.36,2013-02-11 11:30:00,
2013-02-11 05:35:00,36.1,14.7,29.85,NE,48,11.5,11.5,41,0.00,,,0.00,WeatherDisplay:10.36,2013-02-11 11:35:00,
2013-02-11 05:40:00,36.1,14.7,29.85,East,84,9.6,9.6,41,0.00,,,0.00,WeatherDisplay:10.36,2013-02-11 11:40:00,
2013-02-11 05:45:00,36.0,14.5,29.85,NE,53,10.9,10.9,41,0.00,,,0.00,WeatherDisplay:10.36,2013-02-11 11:45:00,
2013-02-11 05:50:00,35.8,14.9,29.85,NE,48,6.9,6.9,42,0.00,,,0.00,WeatherDisplay:10.36,2013-02-11 11:50:00,
2013-02-11 05:55:00,35.8,14.9,29.85,NE,49,10.1,10.1,42,0.00,,,0.00,WeatherDisplay:10.36,2013-02-11 11:55:00,
2013-02-11 06:00:00,35.8,14.9,29.85,SSW,194,13.0,13.0,42,0.00,,,0.00,WeatherDisplay:10.36,2013-02-11 12:00:00,
2013-02-11 06:05:00,35.8,15.4,29.88,NE,53,9.6,9.6,43,0.00,,,0.00,WeatherDisplay:10.36,2013-02-11 12:05:00,
2013-02-11 06:10:00,35.8,14.9,29.88,NE,53,10.4,10.4,42,0.00,,,0.00,WeatherDisplay:10.36,2013-02-11 12:10:00,
2013-02-11 06:15:00,35.6,14.7,29.88,SE,127,15.9,15.9,42,0.00,,,0.00,WeatherDisplay:10.36,2013-02-11 12:15:00,
2013-02-11 06:20:00,35.6,14.7,29.88,East,96,12.7,12.7,42,0.00,,,0.00,WeatherDisplay:10.36,2013-02-11 12:20:00,
2013-02-11 06:25:00,35.4,14.6,29.88,NE,49,9.6,9.6,42,0.00,,,0.00,WeatherDisplay:10.36,2013-02-11 12:25:00,
2013-02-11 06:30:00,35.2,14.9,29.88,NE,51,9.6,9.6,43,0.00,,,0.00,WeatherDisplay:10.36,2013-02-11 12:30:00,
2013-02-11 06:35:00,35.1,14.8,29.88,NE,53,11.5,11.5,43,0.00,,,0.00,WeatherDisplay:10.36,2013-02-11 12:35:00,
2013-02-11 06:40:00,35.1,14.8,29.88,NE,53,8.3,8.3,43,0.00,,,0.00,WeatherDisplay:10.36,2013-02-11 12:40:00,
2013-02-11 06:45:00,34.9,14.6,29.88,ENE,62,9.2,9.2,43,0.00,,,0.00,WeatherDisplay:10.36,2013-02-11 12:45:00,
2013-02-11 06:50:00,34.9,14.6,29.88,NE,52,12.1,12.1,43,0.00,,,0.00,WeatherDisplay:10.36,2013-02-11 12:50:00,
2013-02-11 06:55:00,34.9,15.1,29.88,NE,48,8.7,8.7,44,0.00,,,0.00,WeatherDisplay:10.36,2013-02-11 12:55:00,
2013-02-11 07:00:00,34.7,15.0,29.88,NE,48,6.7,6.7,44,0.00,,,0.00,WeatherDisplay:10.36,2013-02-11 13:00:00,
2013-02-11 07:05:00,34.7,15.0,29.91,NE,52,7.8,7.8,44,0.00,,,0.00,WeatherDisplay:10.36,2013-02-11 13:05:00,
2013-02-11 07:10:00,34.9,15.1,29.91,NE,50,15.4,15.4,44,0.00,,,0.00,WeatherDisplay:10.36,2013-02-11 13:10:00,
2013-02-11 07:15:00,34.9,15.1,29.91,ENE,59,9.6,9.6,44,0.00,,,0.00,WeatherDisplay:10.36,2013-02-11 13:15:00,
2013-02-11 07:20:00,35.1,15.8,29.91,ENE,67,9.6,9.6,45,0.00,,,0.00,WeatherDisplay:10.36,2013-02-11 13:20:00,
2013-02-11 07:25:00,35.1,15.8,29.91,NE,54,10.5,10.5,45,0.00,,,0.00,WeatherDisplay:10.36,2013-02-11 13:25:00,
2013-02-11 07:30:00,35.2,16.0,29.91,ENE,70,6.3,6.3,45,0.00,,,0.00,WeatherDisplay:10.36,2013-02-11 13:30:00,
2013-02-11 07:35:00,35.4,16.2,29.91,ENE,57,8.3,8.3,45,0.00,,,0.00,WeatherDisplay:10.36,2013-02-11 13:35:00,
2013-02-11 07:40:00,35.4,16.2,29.91,NE,50,10.9,10.9,45,0.00,,,0.00,WeatherDisplay:10.36,2013-02-11 13:40:00,
2013-02-11 07:45:00,35.4,16.2,29.91,NE,49,8.3,8.3,45,0.00,,,0.00,WeatherDisplay:10.36,2013-02-11 13:45:00,
2013-02-11 07:50:00,35.4,16.2,29.91,ENE,69,6.9,6.9,45,0.00,,,0.00,WeatherDisplay:10.36,2013-02-11 13:50:00,
2013-02-11 07:55:00,35.4,16.7,29.91,NE,44,7.8,7.8,46,0.00,,,0.00,WeatherDisplay:10.36,2013-02-11 13:55:00,
2013-02-11 08:00:00,35.6,16.8,29.91,NE,51,8.1,8.1,46,0.00,,,0.00,WeatherDisplay:10.36,2013-02-11 14:00:00,
2013-02-11 08:05:00,35.8,17.0,29.94,ESE,110,7.4,7.4,46,0.00,,,0.00,WeatherDisplay:10.36,2013-02-11 14:05:00,
2013-02-11 08:10:00,36.1,17.3,29.94,NE,49,20.1,20.1,46,0.00,,,0.00,WeatherDisplay:10.36,2013-02-11 14:10:00,
2013-02-11 08:15:00,36.5,17.1,29.94,ENE,61,9.6,9.6,45,0.00,,,0.00,WeatherDisplay:10.36,2013-02-11 14:15:00,
2013-02-11 08:20:00,37.0,17.6,29.94,ENE,59,14.3,14.3,45,0.00,,,0.00,WeatherDisplay:10.36,2013-02-11 14:20:00,
2013-02-11 08:25:00,37.4,17.4,29.94,NE,49,9.2,9.2,44,0.00,,,0.00,WeatherDisplay:10.36,2013-02-11 14:25:00,
2013-02-11 08:30:00,37.6,17.6,29.94,ENE,57,9.6,9.6,44,0.00,,,0.00,WeatherDisplay:10.36,2013-02-11 14:30:00,
2013-02-11 08:35:00,37.9,17.4,29.97,NE,51,8.7,8.7,43,0.00,,,0.00,WeatherDisplay:10.36,2013-02-11 14:35:00,
2013-02-11 08:40:00,38.3,17.2,29.97,ENE,58,13.8,13.8,42,0.00,,,0.00,WeatherDisplay:10.36,2013-02-11 14:40:00,
2013-02-11 08:45:00,38.7,17.5,29.97,NE,49,12.1,12.1,42,0.00,,,0.00,WeatherDisplay:10.36,2013-02-11 14:45:00,
2013-02-11 08:50:00,39.0,17.8,29.97,NE,49,8.1,8.1,42,0.00,,,0.00,WeatherDisplay:10.36,2013-02-11 14:50:00,
2013-02-11 08:55:00,39.6,17.8,29.97,NE,50,10.4,10.4,41,0.00,,,0.00,WeatherDisplay:10.36,2013-02-11 14:55:00,
2013-02-11 09:00:00,39.7,17.9,29.97,NE,47,11.2,11.2,41,0.00,,,0.00,WeatherDisplay:10.36,2013-02-11 15:00:00,
2013-02-11 09:05:00,40.1,18.8,29.97,NE,48,8.1,8.1,42,0.00,,,0.00,WeatherDisplay:10.36,2013-02-11 15:05:00,
2013-02-11 09:10:00,40.5,19.1,29.97,ENE,58,8.3,8.3,42,0.00,,,0.00,WeatherDisplay:10.36,2013-02-11 15:10:00,
2013-02-11 09:15:00,41.0,19.6,29.97,East,88,9.2,9.2,42,0.00,,,0.00,WeatherDisplay:10.36,2013-02-11 15:15:00,
2013-02-11 09:20:00,41.2,19.2,29.97,NE,51,13.0,13.0,41,0.00,,,0.00,WeatherDisplay:10.36,2013-02-11 15:20:00,
2013-02-11 09:25:00,41.2,18.7,29.97,NE,53,9.6,9.6,40,0.00,,,0.00,WeatherDisplay:10.36,2013-02-11 15:25:00,
2013-02-11 09:30:00,41.2,18.7,29.97,NE,53,10.4,10.4,40,0.00,,,0.00,WeatherDisplay:10.36,2013-02-11 15:30:00,
2013-02-11 09:35:00,41.5,19.0,29.97,ENE,76,10.1,10.1,40,0.00,,,0.00,WeatherDisplay:10.36,2013-02-11 15:35:00,
2013-02-11 09:40:00,41.7,19.1,29.97,ESE,108,11.5,11.5,40,0.00,,,0.00,WeatherDisplay:10.36,2013-02-11 15:40:00,
2013-02-11 09:45:00,42.1,18.9,29.97,NE,43,11.5,11.5,39,0.00,,,0.00,WeatherDisplay:10.36,2013-02-11 15:45:00,
2013-02-11 09:51:00,42.1,18.3,29.97,ENE,64,7.4,7.4,38,0.00,,,0.00,WeatherDisplay:10.36,2013-02-11 15:51:00,
2013-02-11 09:56:00,42.1,18.3,29.97,ESE,109,16.1,16.1,38,0.00,,,0.00,WeatherDisplay:10.36,2013-02-11 15:56:00,
2013-02-11 10:01:00,42.3,19.0,30.00,NE,53,8.3,8.3,39,0.00,,,0.00,WeatherDisplay:10.36,2013-02-11 16:01:00,
2013-02-11 10:06:00,42.4,19.2,30.00,ESE,115,8.3,8.3,39,0.00,,,0.00,WeatherDisplay:10.36,2013-02-11 16:06:00,
2013-02-11 10:11:00,42.8,19.5,30.00,NE,43,12.5,12.5,39,0.00,,,0.00,WeatherDisplay:10.36,2013-02-11 16:11:00,
2013-02-11 10:16:00,42.8,19.5,30.00,NE,56,13.9,13.9,39,0.00,,,0.00,WeatherDisplay:10.36,2013-02-11 16:16:00,
2013-02-11 10:21:00,42.8,18.9,30.00,ENE,75,11.6,11.6,38,0.00,,,0.00,WeatherDisplay:10.36,2013-02-11 16:21:00,
2013-02-11 10:26:00,43.0,19.1,30.00,ENE,61,10.5,10.5,38,0.00,,,0.00,WeatherDisplay:10.36,2013-02-11 16:26:00,
2013-02-11 10:31:00,43.3,19.4,30.00,NE,52,9.6,9.6,38,0.00,,,0.00,WeatherDisplay:10.36,2013-02-11 16:31:00,
2013-02-11 10:36:00,43.5,19.6,30.00,East,79,12.7,12.7,38,0.00,,,0.00,WeatherDisplay:10.36,2013-02-11 16:36:00,
2013-02-11 10:41:00,43.7,19.1,30.00,NE,49,9.2,9.2,37,0.00,,,0.00,WeatherDisplay:10.36,2013-02-11 16:41:00,
2013-02-11 10:46:00,44.1,19.4,30.00,NE,46,11.5,11.5,37,0.00,,,0.00,WeatherDisplay:10.36,2013-02-11 16:46:00,
2013-02-11 10:51:00,44.2,19.6,30.00,NE,45,9.2,9.2,37,0.00,,,0.00,WeatherDisplay:10.36,2013-02-11 16:51:00,
2013-02-11 10:56:00,44.6,19.9,30.00,NE,49,8.1,8.1,37,0.00,,,0.00,WeatherDisplay:10.36,2013-02-11 16:56:00,
2013-02-11 11:02:00,44.8,20.1,30.00,NE,51,12.7,12.7,37,0.00,,,0.00,WeatherDisplay:10.36,2013-02-11 17:02:00,
2013-02-11 11:07:00,44.8,20.1,30.00,NE,54,11.5,11.5,37,0.00,,,0.00,WeatherDisplay:10.36,2013-02-11 17:07:00,
2013-02-11 11:12:00,45.1,20.4,30.00,NE,53,8.1,8.1,37,0.00,,,0.00,WeatherDisplay:10.36,2013-02-11 17:12:00,
2013-02-11 11:17:00,45.3,20.5,30.00,South,173,12.1,12.1,37,0.00,,,0.00,WeatherDisplay:10.36,2013-02-11 17:17:00,
2013-02-11 11:22:00,45.5,20.1,30.00,ENE,72,11.6,11.6,36,0.00,,,0.00,WeatherDisplay:10.36,2013-02-11 17:22:00,
2013-02-11 11:27:00,45.9,20.4,30.00,ENE,62,9.2,9.2,36,0.00,,,0.00,WeatherDisplay:10.36,2013-02-11 17:27:00,
2013-02-11 11:32:00,46.0,20.5,30.00,ENE,57,11.5,11.5,36,0.00,,,0.00,WeatherDisplay:10.36,2013-02-11 17:32:00,
2013-02-11 11:37:00,46.0,19.9,30.00,NE,51,10.5,10.5,35,0.00,,,0.00,WeatherDisplay:10.36,2013-02-11 17:37:00,
2013-02-11 11:42:00,46.2,20.7,30.00,NE,56,10.5,10.5,36,0.00,,,0.00,WeatherDisplay:10.36,2013-02-11 17:42:00,
2013-02-11 11:47:00,46.4,20.2,30.00,NE,52,7.4,7.4,35,0.00,,,0.00,WeatherDisplay:10.36,2013-02-11 17:47:00,
2013-02-11 11:52:00,46.6,20.4,30.00,NE,50,10.1,10.1,35,0.00,,,0.00,WeatherDisplay:10.36,2013-02-11 17:52:00,
2013-02-11 11:57:00,46.8,19.8,30.00,NE,47,9.2,9.2,34,0.00,,,0.00,WeatherDisplay:10.36,2013-02-11 17:57:00,
2013-02-11 12:02:00,46.9,19.3,30.00,East,94,12.1,12.1,33,0.00,,,0.00,WeatherDisplay:10.36,2013-02-11 18:02:00,
2013-02-11 12:07:00,46.8,19.1,30.00,NE,47,6.9,6.9,33,0.00,,,0.00,WeatherDisplay:10.36,2013-02-11 18:07:00,
2013-02-11 12:12:00,46.9,20.0,30.00,NE,54,8.1,8.1,34,0.00,,,0.00,WeatherDisplay:10.36,2013-02-11 18:12:00,
2013-02-11 12:17:00,47.1,19.5,30.00,NE,39,13.8,13.8,33,0.00,,,0.00,WeatherDisplay:10.36,2013-02-11 18:17:00,
2013-02-11 12:22:00,47.1,20.2,30.00,ENE,58,9.6,9.6,34,0.00,,,0.00,WeatherDisplay:10.36,2013-02-11 18:22:00,
2013-02-11 12:27:00,47.3,19.6,30.00,ENE,68,10.5,10.5,33,0.00,,,0.00,WeatherDisplay:10.36,2013-02-11 18:27:00,
2013-02-11 12:32:00,47.3,19.6,30.00,NE,47,8.1,8.1,33,0.00,,,0.00,WeatherDisplay:10.36,2013-02-11 18:32:00,
2013-02-11 12:37:00,47.7,19.9,30.00,NE,50,12.5,12.5,33,0.00,,,0.00,WeatherDisplay:10.36,2013-02-11 18:37:00,
2013-02-11 12:42:00,47.7,19.2,30.00,ESE,112,9.2,9.2,32,0.00,,,0.00,WeatherDisplay:10.36,2013-02-11 18:42:00,
2013-02-11 12:47:00,47.7,19.2,30.00,NE,55,11.5,11.5,32,0.00,,,0.00,WeatherDisplay:10.36,2013-02-11 18:47:00,
2013-02-11 12:52:00,47.7,19.9,30.00,ENE,60,11.2,11.2,33,0.00,,,0.00,WeatherDisplay:10.36,2013-02-11 18:52:00,
2013-02-11 12:57:00,47.7,19.2,30.00,NE,52,11.5,11.5,32,0.00,,,0.00,WeatherDisplay:10.36,2013-02-11 18:57:00,
2013-02-11 13:02:00,47.7,19.2,30.00,NE,51,11.5,11.5,32,0.00,,,0.00,WeatherDisplay:10.36,2013-02-11 19:02:00,
2013-02-11 13:07:00,47.8,20.1,30.00,ENE,73,12.7,12.7,33,0.00,,,0.00,WeatherDisplay:10.36,2013-02-11 19:07:00,
2013-02-11 13:12:00,48.0,19.5,30.00,ENE,66,9.2,9.2,32,0.00,,,0.00,WeatherDisplay:10.36,2013-02-11 19:12:00,
2013-02-11 13:18:00,48.0,19.5,30.00,ENE,67,8.7,8.7,32,0.00,,,0.00,WeatherDisplay:10.36,2013-02-11 19:18:00,
2013-02-11 13:23:00,48.0,20.2,30.00,NE,50,10.5,10.5,33,0.00,,,0.00,WeatherDisplay:10.36,2013-02-11 19:23:00,
2013-02-11 13:28:00,48.2,20.4,30.00,NE,52,11.5,11.5,33,0.00,,,0.00,WeatherDisplay:10.36,2013-02-11 19:28:00,
2013-02-11 13:33:00,48.4,19.8,30.00,NE,51,9.2,9.2,32,0.00,,,0.00,WeatherDisplay:10.36,2013-02-11 19:33:00,
2013-02-11 13:38:00,48.4,19.8,30.00,ESE,106,11.5,11.5,32,0.00,,,0.00,WeatherDisplay:10.36,2013-02-11 19:38:00,
2013-02-11 13:43:00,48.4,19.8,30.00,NE,56,9.2,9.2,32,0.00,,,0.00,WeatherDisplay:10.36,2013-02-11 19:43:00,
2013-02-11 13:48:00,48.6,20.7,30.00,NE,53,13.0,13.0,33,0.00,,,0.00,WeatherDisplay:10.36,2013-02-11 19:48:00,
2013-02-11 13:53:00,48.6,20.0,30.00,NE,44,6.9,6.9,32,0.00,,,0.00,WeatherDisplay:10.36,2013-02-11 19:53:00,
2013-02-11 13:58:00,48.7,20.2,30.00,NE,43,9.2,9.2,32,0.00,,,0.00,WeatherDisplay:10.36,2013-02-11 19:58:00,
2013-02-11 14:03:00,48.7,20.2,30.00,East,79,10.5,10.5,32,0.00,,,0.00,WeatherDisplay:10.36,2013-02-11 20:03:00,
2013-02-11 14:08:00,48.6,20.0,30.00,East,101,11.5,11.5,32,0.00,,,0.00,WeatherDisplay:10.36,2013-02-11 20:08:00,
2013-02-11 14:13:00,48.7,20.2,30.00,NE,46,11.5,11.5,32,0.00,,,0.00,WeatherDisplay:10.36,2013-02-11 20:13:00,
2013-02-11 14:18:00,48.7,20.2,29.97,NE,51,13.8,13.8,32,0.00,,,0.00,WeatherDisplay:10.36,2013-02-11 20:18:00,
2013-02-11 14:23:00,48.6,20.0,29.97,NE,45,8.7,8.7,32,0.00,,,0.00,WeatherDisplay:10.36,2013-02-11 20:23:00,
2013-02-11 14:28:00,48.6,20.7,29.97,NE,50,9.6,9.6,33,0.00,,,0.00,WeatherDisplay:10.36,2013-02-11 20:28:00,
2013-02-11 14:33:00,48.4,20.6,29.97,SE,134,10.9,10.9,33,0.00,,,0.00,WeatherDisplay:10.36,2013-02-11 20:33:00,
2013-02-11 14:38:00,48.6,20.7,29.97,East,88,10.9,10.9,33,0.00,,,0.00,WeatherDisplay:10.36,2013-02-11 20:38:00,
2013-02-11 14:43:00,48.6,20.0,29.97,ENE,60,12.7,12.7,32,0.00,,,0.00,WeatherDisplay:10.36,2013-02-11 20:43:00,
2013-02-11 14:48:00,48.6,20.0,30.00,NE,52,13.8,13.8,32,0.00,,,0.00,WeatherDisplay:10.36,2013-02-11 20:48:00,
2013-02-11 14:53:00,48.4,19.1,30.00,NE,49,9.2,9.2,31,0.00,,,0.00,WeatherDisplay:10.36,2013-02-11 20:53:00,
2013-02-11 14:58:00,48.4,19.8,30.00,NE,55,6.9,6.9,32,0.00,,,0.00,WeatherDisplay:10.36,2013-02-11 20:58:00,
2013-02-11 15:03:00,48.6,20.0,30.00,NE,47,9.2,9.2,32,0.00,,,0.00,WeatherDisplay:10.36,2013-02-11 21:03:00,
2013-02-11 15:08:00,48.6,19.3,30.00,NE,35,10.1,10.1,31,0.00,,,0.00,WeatherDisplay:10.36,2013-02-11 21:08:00,
2013-02-11 15:13:00,48.4,19.1,30.00,NE,45,10.4,10.4,31,0.00,,,0.00,WeatherDisplay:10.36,2013-02-11 21:13:00,
2013-02-11 15:18:00,48.4,19.1,30.00,SE,127,10.5,10.5,31,0.00,,,0.00,WeatherDisplay:10.36,2013-02-11 21:18:00,
2013-02-11 15:23:00,48.2,18.9,30.00,NE,50,9.6,9.6,31,0.00,,,0.00,WeatherDisplay:10.36,2013-02-11 21:23:00,
2013-02-11 15:28:00,48.2,18.9,30.00,NE,47,8.3,8.3,31,0.00,,,0.00,WeatherDisplay:10.36,2013-02-11 21:28:00,
2013-02-11 15:33:00,48.2,19.7,30.00,NE,51,11.2,11.2,32,0.00,,,0.00,WeatherDisplay:10.36,2013-02-11 21:33:00,
2013-02-11 15:38:00,48.0,18.8,30.00,ENE,67,9.2,9.2,31,0.00,,,0.00,WeatherDisplay:10.36,2013-02-11 21:38:00,
2013-02-11 15:43:00,47.8,18.6,30.00,NE,53,9.2,9.2,31,0.00,,,0.00,WeatherDisplay:10.36,2013-02-11 21:43:00,
2013-02-11 15:48:00,47.8,19.4,30.00,NE,50,9.2,9.2,32,0.00,,,0.00,WeatherDisplay:10.36,2013-02-11 21:48:00,
2013-02-11 15:53:00,47.7,19.2,30.00,ENE,71,6.9,6.9,32,0.00,,,0.00,WeatherDisplay:10.36,2013-02-11 21:53:00,
2013-02-11 15:58:00,47.7,19.2,30.00,NE,54,6.9,6.9,32,0.00,,,0.00,WeatherDisplay:10.36,2013-02-11 21:58:00,
2013-02-11 16:03:00,47.5,19.0,30.00,NE,50,10.9,10.9,32,0.00,,,0.00,WeatherDisplay:10.36,2013-02-11 22:03:00,
2013-02-11 16:08:00,47.3,18.9,30.00,ENE,71,8.7,8.7,32,0.00,,,0.00,WeatherDisplay:10.36,2013-02-11 22:08:00,
2013-02-11 16:45:00,46.4,19.5,30.00,NE,55,5.8,5.8,34,0.00,,,0.00,WeatherDisplay:10.36,2013-02-11 22:45:00,
2013-02-11 16:50:00,46.2,19.4,30.00,NE,45,10.5,10.5,34,0.00,,,0.00,WeatherDisplay:10.36,2013-02-11 22:50:00,
2013-02-11 16:55:00,46.0,19.2,30.00,NE,56,6.9,6.9,34,0.00,,,0.00,WeatherDisplay:10.36,2013-02-11 22:55:00,
2013-02-11 17:00:00,46.0,19.2,30.00,NE,48,7.4,7.4,34,0.00,,,0.00,WeatherDisplay:10.36,2013-02-11 23:00:00,
2013-02-11 17:06:00,45.7,19.6,30.00,SSE,166,6.3,6.3,35,0.00,,,0.00,WeatherDisplay:10.36,2013-02-11 23:06:00,
2013-02-11 17:11:00,45.5,20.1,30.00,NE,42,6.9,6.9,36,0.00,,,0.00,WeatherDisplay:10.36,2013-02-11 23:11:00,
2013-02-11 17:16:00,45.1,19.7,30.03,NE,49,6.9,6.9,36,0.00,,,0.00,WeatherDisplay:10.36,2013-02-11 23:16:00,
2013-02-11 17:21:00,45.0,19.6,30.03,NE,54,5.8,5.8,36,0.00,,,0.00,WeatherDisplay:10.36,2013-02-11 23:21:00,
2013-02-11 17:26:00,44.6,19.9,30.03,NE,50,4.6,4.6,37,0.00,,,0.00,WeatherDisplay:10.36,2013-02-11 23:26:00,
2013-02-11 17:31:00,44.6,19.9,30.03,ENE,58,5.8,5.8,37,0.00,,,0.00,WeatherDisplay:10.36,2013-02-11 23:31:00,
2013-02-11 17:36:00,44.2,19.6,30.03,ENE,59,4.6,4.6,37,0.00,,,0.00,WeatherDisplay:10.36,2013-02-11 23:36:00,
2013-02-11 17:41:00,44.1,19.4,30.03,NE,51,5.8,5.8,37,0.00,,,0.00,WeatherDisplay:10.36,2013-02-11 23:41:00,
2013-02-11 17:46:00,43.7,19.7,30.03,NE,46,5.4,5.4,38,0.00,,,0.00,WeatherDisplay:10.36,2013-02-11 23:46:00,
2013-02-11 17:51:00,43.3,19.4,30.03,ENE,75,4.6,4.6,38,0.00,,,0.00,WeatherDisplay:10.36,2013-02-11 23:51:00,
2013-02-11 17:56:00,43.0,19.1,30.03,ENE,61,4.0,4.0,38,0.00,,,0.00,WeatherDisplay:10.36,2013-02-11 23:56:00,
2013-02-11 18:01:00,42.8,18.9,30.03,NE,50,3.6,3.6,38,0.00,,,0.00,WeatherDisplay:10.36,2013-02-12 00:01:00,
2013-02-11 18:06:00,42.6,18.8,30.03,NE,49,3.6,3.6,38,0.00,,,0.00,WeatherDisplay:10.36,2013-02-12 00:06:00,
2013-02-11 18:11:00,42.4,19.2,30.03,NE,52,4.0,4.0,39,0.00,,,0.00,WeatherDisplay:10.36,2013-02-12 00:11:00,
2013-02-11 18:16:00,42.6,20.0,30.03,NE,55,4.0,4.0,40,0.00,,,0.00,WeatherDisplay:10.36,2013-02-12 00:16:00,
2013-02-11 18:21:00,42.6,20.5,30.03,NE,53,4.6,4.6,41,0.00,,,0.00,WeatherDisplay:10.36,2013-02-12 00:21:00,
2013-02-11 18:27:00,42.6,20.5,30.03,NE,47,4.0,4.0,41,0.00,,,0.00,WeatherDisplay:10.36,2013-02-12 00:27:00,
2013-02-11 18:32:00,42.6,21.1,30.03,NE,49,5.8,5.8,42,0.00,,,0.00,WeatherDisplay:10.36,2013-02-12 00:32:00,
2013-02-11 18:37:00,42.4,20.9,30.03,East,100,4.6,4.6,42,0.00,,,0.00,WeatherDisplay:10.36,2013-02-12 00:37:00,
2013-02-11 18:43:00,42.4,20.9,30.03,NE,49,4.6,4.6,42,0.00,,,0.00,WeatherDisplay:10.36,2013-02-12 00:43:00,
2013-02-11 18:48:00,42.3,20.8,30.03,NE,55,3.6,3.6,42,0.00,,,0.00,WeatherDisplay:10.36,2013-02-12 00:48:00,
2013-02-11 18:53:00,42.1,20.0,30.03,ENE,75,3.6,3.6,41,0.00,,,0.00,WeatherDisplay:10.36,2013-02-12 00:53:00,
2013-02-11 18:57:00,41.9,19.9,30.03,NE,53,4.6,4.6,41,0.00,,,0.00,WeatherDisplay:10.36,2013-02-12 00:57:00,
2013-02-11 19:03:00,41.5,19.6,30.03,ENE,71,4.0,4.0,41,0.00,,,0.00,WeatherDisplay:10.36,2013-02-12 01:03:00,
2013-02-11 19:08:00,41.2,19.2,30.03,ENE,66,4.0,4.0,41,0.00,,,0.00,WeatherDisplay:10.36,2013-02-12 01:08:00,
2013-02-11 19:14:00,41.0,19.1,30.03,NE,56,3.6,3.6,41,0.00,,,0.00,WeatherDisplay:10.36,2013-02-12 01:14:00,
2013-02-11 19:19:00,40.6,18.7,30.06,ESE,121,3.5,3.5,41,0.00,,,0.00,WeatherDisplay:10.36,2013-02-12 01:19:00,
2013-02-11 19:24:00,40.5,19.1,30.06,NE,50,3.6,3.6,42,0.00,,,0.00,WeatherDisplay:10.36,2013-02-12 01:24:00,
2013-02-11 19:29:00,40.3,19.0,30.06,NE,51,3.5,3.5,42,0.00,,,0.00,WeatherDisplay:10.36,2013-02-12 01:29:00,
2013-02-11 19:34:00,39.9,18.7,30.06,East,98,3.5,3.5,42,0.00,,,0.00,WeatherDisplay:10.36,2013-02-12 01:34:00,
2013-02-11 19:39:00,39.7,19.0,30.06,NE,49,3.6,3.6,43,0.00,,,0.00,WeatherDisplay:10.36,2013-02-12 01:39:00,
2013-02-11 19:44:00,39.7,19.0,30.06,NE,53,3.6,3.6,43,0.00,,,0.00,WeatherDisplay:10.36,2013-02-12 01:44:00,
2013-02-11 19:49:00,39.4,18.7,30.06,NE,52,3.6,3.6,43,0.00,,,0.00,WeatherDisplay:10.36,2013-02-12 01:49:00,
2013-02-11 19:54:00,39.4,18.7,30.06,NE,52,3.6,3.6,43,0.00,,,0.00,WeatherDisplay:10.36,2013-02-12 01:54:00,
2013-02-11 19:59:00,39.2,18.5,30.06,NE,51,0.0,0.0,43,0.00,,,0.00,WeatherDisplay:10.36,2013-02-12 01:59:00,
2013-02-11 20:05:00,38.8,18.8,30.06,NE,50,0.0,0.0,44,0.00,,,0.00,WeatherDisplay:10.36,2013-02-12 02:05:00,
2013-02-11 20:10:00,38.7,18.6,30.06,NE,51,0.0,0.0,44,0.00,,,0.00,WeatherDisplay:10.36,2013-02-12 02:10:00,
2013-02-11 20:15:00,38.3,18.8,30.06,NE,52,0.0,0.0,45,0.00,,,0.00,WeatherDisplay:10.36,2013-02-12 02:15:00,
2013-02-11 20:20:00,38.1,18.6,30.06,NE,51,0.0,0.0,45,0.00,,,0.00,WeatherDisplay:10.36,2013-02-12 02:20:00,
2013-02-11 20:25:00,37.9,18.5,30.06,NE,53,0.0,0.0,45,0.00,,,0.00,WeatherDisplay:10.36,2013-02-12 02:25:00,
2013-02-11 20:30:00,37.8,18.8,30.06,NE,51,0.0,0.0,46,0.00,,,0.00,WeatherDisplay:10.36,2013-02-12 02:30:00,
2013-02-11 20:35:00,37.6,18.6,30.06,NE,52,0.0,0.0,46,0.00,,,0.00,WeatherDisplay:10.36,2013-02-12 02:35:00,
2013-02-11 20:40:00,37.4,18.5,30.06,NE,51,0.0,0.0,46,0.00,,,0.00,WeatherDisplay:10.36,2013-02-12 02:40:00,
2013-02-11 20:45:00,37.2,18.8,30.06,NE,51,0.0,0.0,47,0.00,,,0.00,WeatherDisplay:10.36,2013-02-12 02:45:00,
2013-02-11 20:50:00,37.0,18.7,30.08,NE,51,0.0,0.0,47,0.00,,,0.00,WeatherDisplay:10.36,2013-02-12 02:50:00,
2013-02-11 20:55:00,37.0,19.1,30.08,NE,49,3.1,0.0,48,0.00,,,0.00,WeatherDisplay:10.36,2013-02-12 02:55:00,
2013-02-11 21:00:00,37.0,19.1,30.08,NE,48,0.0,0.0,48,0.00,,,0.00,WeatherDisplay:10.36,2013-02-12 03:00:00,
2013-02-11 21:05:00,36.9,19.0,30.08,West,262,0.0,0.0,48,0.00,,,0.00,WeatherDisplay:10.36,2013-02-12 03:05:00,
2013-02-11 21:10:00,36.7,19.3,30.08,NE,49,0.0,0.0,49,0.00,,,0.00,WeatherDisplay:10.36,2013-02-12 03:10:00,
2013-02-11 21:15:00,36.7,19.3,30.08,NE,50,0.0,0.0,49,0.00,,,0.00,WeatherDisplay:10.36,2013-02-12 03:15:00,
2013-02-11 21:20:00,36.5,19.1,30.08,NE,47,0.0,0.0,49,0.00,,,0.00,WeatherDisplay:10.36,2013-02-12 03:20:00,
2013-02-11 21:25:00,36.3,19.4,30.08,NE,47,0.0,0.0,50,0.00,,,0.00,WeatherDisplay:10.36,2013-02-12 03:25:00,
2013-02-11 21:30:00,36.1,19.3,30.08,NE,49,0.0,0.0,50,0.00,,,0.00,WeatherDisplay:10.36,2013-02-12 03:30:00,
2013-02-11 21:35:00,36.0,19.1,30.08,NE,47,0.0,0.0,50,0.00,,,0.00,WeatherDisplay:10.36,2013-02-12 03:35:00,
2013-02-11 21:40:00,35.6,19.2,30.08,NE,46,0.0,0.0,51,0.00,,,0.00,WeatherDisplay:10.36,2013-02-12 03:40:00,
2013-02-11 21:45:00,35.6,19.2,30.08,NE,49,0.0,0.0,51,0.00,,,0.00,WeatherDisplay:10.36,2013-02-12 03:45:00,
2013-02-11 21:50:00,35.4,19.1,30.08,NE,46,0.0,0.0,51,0.00,,,0.00,WeatherDisplay:10.36,2013-02-12 03:50:00,
2013-02-11 21:55:00,35.2,18.9,30.08,NE,51,0.0,0.0,51,0.00,,,0.00,WeatherDisplay:10.36,2013-02-12 03:55:00,
2013-02-11 22:00:00,35.1,19.2,30.08,NE,49,0.0,0.0,52,0.00,,,0.00,WeatherDisplay:10.36,2013-02-12 04:00:00,
2013-02-11 22:05:00,34.9,19.0,30.11,NE,49,0.0,0.0,52,0.00,,,0.00,WeatherDisplay:10.36,2013-02-12 04:05:00,
2013-02-11 22:10:00,34.7,18.9,30.11,NE,49,0.0,0.0,52,0.00,,,0.00,WeatherDisplay:10.36,2013-02-12 04:10:00,
2013-02-11 22:15:00,34.5,18.7,30.11,NE,47,3.5,0.0,52,0.00,,,0.00,WeatherDisplay:10.36,2013-02-12 04:15:00,
2013-02-11 22:20:00,34.3,19.0,30.11,NE,48,0.0,0.0,53,0.00,,,0.00,WeatherDisplay:10.36,2013-02-12 04:20:00,
2013-02-11 22:25:00,34.3,19.0,30.11,NE,49,0.0,0.0,53,0.00,,,0.00,WeatherDisplay:10.36,2013-02-12 04:25:00,
2013-02-11 22:30:00,34.2,18.8,30.11,NE,47,0.0,0.0,53,0.00,,,0.00,WeatherDisplay:10.36,2013-02-12 04:30:00,
2013-02-11 22:35:00,34.0,18.6,30.11,NE,49,0.0,0.0,53,0.00,,,0.00,WeatherDisplay:10.36,2013-02-12 04:35:00,
2013-02-11 22:40:00,33.8,18.9,30.11,NE,47,0.0,0.0,54,0.00,,,0.00,WeatherDisplay:10.36,2013-02-12 04:40:00,
2013-02-11 22:45:00,33.8,18.9,30.11,North,351,0.0,0.0,54,0.00,,,0.00,WeatherDisplay:10.36,2013-02-12 04:45:00,
2013-02-11 22:50:00,33.6,18.7,30.88,North,351,0.0,0.0,54,0.00,,,0.00,WeatherDisplay:10.36,2013-02-12 04:50:00,
2013-02-11 22:55:00,33.6,18.7,30.88,North,351,0.0,0.0,54,0.00,,,0.00,WeatherDisplay:10.36,2013-02-12 04:55:00,
2013-02-11 23:00:00,33.3,18.4,30.88,North,351,0.0,0.0,54,0.00,,,0.00,WeatherDisplay:10.36,2013-02-12 05:00:00,
2013-02-11 23:01:00,33.3,18.4,30.88,North,351,0.0,0.0,54,0.00,,,0.00,WeatherDisplay:10.36,2013-02-12 05:01:00,
2013-02-11 23:03:00,33.3,18.4,30.88,North,351,0.0,0.0,54,0.00,,,0.00,WeatherDisplay:10.36,2013-02-12 05:03:00,
2013-02-11 23:08:00,33.1,18.2,30.88,North,351,0.0,0.0,54,0.00,,,0.00,WeatherDisplay:10.36,2013-02-12 05:08:00,
2013-02-11 23:13:00,32.9,18.5,30.88,North,351,0.0,0.0,55,0.00,,,0.00,WeatherDisplay:10.36,2013-02-12 05:13:00,
2013-02-11 23:18:00,32.7,18.3,30.88,North,351,0.0,0.0,55,0.00,,,0.00,WeatherDisplay:10.36,2013-02-12 05:18:00,
2013-02-11 23:23:00,32.5,18.1,30.88,North,351,0.0,0.0,55,0.00,,,0.00,WeatherDisplay:10.36,2013-02-12 05:23:00,
2013-02-11 23:28:00,32.5,18.6,30.88,North,351,0.0,0.0,56,0.00,,,0.00,WeatherDisplay:10.36,2013-02-12 05:28:00,
2013-02-11 23:33:00,32.4,18.4,30.91,North,351,0.0,0.0,56,0.00,,,0.00,WeatherDisplay:10.36,2013-02-12 05:33:00,
2013-02-11 23:38:00,32.2,18.2,30.91,North,351,0.0,0.0,56,0.00,,,0.00,WeatherDisplay:10.36,2013-02-12 05:38:00,
2013-02-11 23:43:00,32.0,18.1,30.91,North,351,0.0,0.0,56,0.00,,,0.00,WeatherDisplay:10.36,2013-02-12 05:43:00,
2013-02-11 23:48:00,32.0,18.5,30.88,North,351,0.0,0.0,57,0.00,,,0.00,WeatherDisplay:10.36,2013-02-12 05:48:00,
2013-02-11 23:53:00,31.8,18.3,30.88,North,351,0.0,0.0,57,0.00,,,0.00,WeatherDisplay:10.36,2013-02-12 05:53:00,
2013-02-11 23:58:00,31.6,18.1,30.88,North,351,0.0,0.0,57,0.00,,,0.00,WeatherDisplay:10.36,2013-02-12 05:58:00,